Main page
METAR-TAF:

METAR-TAF

Airports :

Gran Canaria Airport

Gran Canaria, Spain

latitude: 27-56N, longitude: 015-23W, elevation: 23 m

Current weather observation

The report was made 13 minutes ago, at 18:30 UTC
Wind 6 kt from the North, varying between Northwest and North/Northeast
Temperature 20°C
Humidity 60%
Pressure 1016 hPa
Visibility 10 km or more
Few clouds at a height of 2500 ft
Scattered clouds at a height of 4000 ft

METAR: GCLP 141830Z 35006KT 320V020 9999 FEW025 SCT040 20/12 Q1016 NOSIG

Time: 18:43 (18:43 UTC)

Forecast

The report was made 4 hours and 43 minutes ago, at 14:00 UTC
Forecast valid from 14 at 15 UTC to 15 at 15 UTC
Wind 13 kt from the North/Northeast
Visibility 10 km or more
Broken clouds at a height of 3500 ft
Becoming
from 14 at 19 UTC to 14 at 21 UTC
Wind 7 kt from the Northwest
Temporary
from 15 at 12 UTC to 15 at 15 UTC
rain

TAF: GCLP 141400Z 1415/1515 02013KT 9999 BKN035 TX23/1514Z TN16/1506Z BECMG 1419/1421 32007KT TEMPO 1512/1515 RA

Weather observations and forecasts of more than 4000 airports (METAR and TAF reports).

The available stations are represented by yellow and red dots on the map.

Hover mouse over dot to see the name of the station.

Then click to see weather observations and forecasts.

To change the map : click on the green buttons with a black cross to zoom in, on the green button with a dash to zoom out, or on the green arrows for adjacent maps.


METAR-TAF: